Benalla, Victoria

10:37 AM AEST on July 29, 2015 (GMT +1000)
Witt Street, | | Change Station
CLOSE
Current Station
Personal Weather Station
Location: Benalla, VICTORIA
Elevation: 558 ft
Nearby Weather Stations

Elev 558 ft 36.54 °S, 146.00 °E | Updated 14 minutes ago

Overcast
Overcast
48.6 °F
Feels Like 47 °F
N
4.7
Wind Variable Wind from ENE

Today
High -- | Low -- °F
--% Chance of Precip.
Yesterday
High -- | Low -- °F
Precip. -- in
7:16 AM 5:28 PM
Waxing Gibbous, 92% visible
Pressure 30.57 in
Visibility 0.2 miles
Clouds Overcast 200 ft
Windchill 47 °F
Dew Point 44 °F
Humidity 83%
Rainfall 0.00 in
Snow Depth Not available.
UV 1 out of 12
Pollen Not available.
Air Quality Not available.
Flu Activity Not available.
SPECI YWGT 290030Z AUTO 12001KT 0400 // OVC002 05/05 Q1035

More Conditions Fewer Conditions

Pressure 30.57 in
Visibility 0.2 miles
Clouds Overcast 200 ft
Windchill 47 °F
Dew Point 44 °F
Humidity 83%
Rainfall 0.00 in
Snow Depth Not available.
UV 1 out of 12
Pollen Not available.
Air Quality Not available.
Flu Activity Not available.
SPECI YWGT 290030Z AUTO 12001KT 0400 // OVC002 05/05 Q1035

More Conditions Fewer Conditions

10-Day Weather Forecast

×

Almanac

Astronomy

Jul. 29, 2015 Rise Set
Actual Time
Civil Twilight
Nautical Twilight
Astronomical Twilight
Moon
Length of Visible Light
Length of Day
Tomorrow will be .
, % of the Moon is Illuminated

Today's Extremes

Country Highs Country Lows

Community

WunderPhotos

Upload Photos

1,841,986 photos uploaded!

WunderBlogs® & News

Nearby

Air Quality

  Air Quality AQ Index Pollutant
Not available.

Snow Depth

Station Depth Elevation

Earthquake Activity

City Distance Mag. Time & Date
Minimum magnitude displayed is 2.5.

Coastal Water Temperatures

Place Temperature

Stations

Nearby Weather Stations

Station Location Temp. Windchill Dew Point Humidity Wind Precip. Elev Updated Type